createdAt,value
2023-03-02T00:02:04.636Z,22.40
2023-03-02T00:04:52.904Z,23.13
2023-03-02T00:07:33.587Z,20.80
2023-03-02T00:10:01.176Z,20.37
2023-03-02T00:12:29.546Z,20.63
2023-03-02T00:14:56.562Z,20.73
2023-03-02T00:17:29.234Z,19.57
2023-03-02T00:20:11.919Z,23.77
2023-03-02T00:22:45.015Z,21.63
2023-03-02T00:25:15.020Z,22.33
2023-03-02T00:27:42.457Z,19.93
2023-03-02T00:30:12.455Z,17.77
2023-03-02T00:32:39.796Z,18.93
2023-03-02T00:35:07.927Z,23.10
2023-03-02T00:37:38.915Z,20.27
2023-03-02T00:40:09.948Z,21.80
2023-03-02T00:42:37.904Z,17.07
2023-03-02T00:45:07.580Z,20.67
2023-03-02T00:47:36.847Z,21.90
2023-03-02T00:50:06.499Z,15.70
2023-03-02T00:52:34.087Z,22.67
2023-03-02T00:55:01.068Z,19.80
2023-03-02T00:57:28.499Z,20.80
2023-03-02T00:59:55.692Z,23.40
2023-03-02T01:02:22.845Z,21.70
2023-03-02T01:04:50.220Z,18.73
2023-03-02T01:07:21.653Z,18.63
2023-03-02T01:09:49.100Z,18.97
2023-03-02T01:12:16.586Z,23.87
2023-03-02T01:14:47.828Z,26.97
2023-03-02T01:17:15.796Z,19.23
2023-03-02T01:19:43.197Z,23.87
2023-03-02T01:22:10.761Z,18.73
2023-03-02T01:24:37.862Z,23.63
2023-03-02T01:27:05.023Z,23.50
2023-03-02T01:29:32.041Z,19.90
2023-03-02T01:31:59.109Z,23.90
2023-03-02T01:34:26.208Z,21.57
2023-03-02T01:36:53.198Z,18.60
2023-03-02T01:39:22.601Z,24.77
2023-03-02T01:41:52.322Z,21.87
2023-03-02T01:44:42.266Z,23.57
2023-03-02T01:47:24.314Z,22.03
2023-03-02T01:50:11.312Z,25.90
2023-03-02T01:52:39.231Z,19.30
2023-03-02T01:55:09.887Z,23.77
2023-03-02T01:57:44.043Z,25.37
2023-03-02T02:00:24.540Z,26.10
2023-03-02T02:02:53.450Z,23.23
2023-03-02T02:05:25.437Z,24.80
2023-03-02T02:07:52.404Z,25.80
2023-03-02T02:10:20.779Z,28.77
2023-03-02T02:12:47.996Z,24.77
2023-03-02T02:15:15.085Z,25.53
2023-03-02T02:17:42.839Z,25.33
2023-03-02T02:20:45.634Z,28.47
2023-03-02T02:24:08.115Z,23.80
2023-03-02T02:26:42.260Z,25.30
2023-03-02T02:29:19.725Z,26.67
2023-03-02T02:32:19.989Z,30.33
2023-03-02T02:34:59.126Z,24.93
2023-03-02T02:37:54.680Z,22.90
2023-03-02T02:40:46.721Z,24.83
2023-03-02T02:43:17.798Z,32.80
2023-03-02T02:45:47.606Z,24.70
2023-03-02T02:48:19.444Z,25.40
2023-03-02T02:50:47.689Z,28.50
2023-03-02T02:53:28.370Z,23.80
2023-03-02T02:55:58.900Z,23.13
2023-03-02T02:58:33.841Z,30.40
2023-03-02T03:01:02.309Z,29.83
2023-03-02T03:03:37.548Z,31.40
2023-03-02T03:06:12.989Z,26.40
2023-03-02T03:08:46.059Z,27.97
2023-03-02T03:11:23.723Z,29.03
2023-03-02T03:14:13.155Z,29.30
2023-03-02T03:16:44.018Z,29.50
2023-03-02T03:19:17.386Z,29.50
2023-03-02T03:21:45.508Z,31.37
2023-03-02T03:24:12.828Z,27.97
2023-03-02T03:26:40.013Z,27.50
2023-03-02T03:29:07.778Z,33.20
2023-03-02T03:31:35.509Z,29.53
2023-03-02T03:34:03.024Z,30.57
2023-03-02T03:36:31.455Z,31.00
2023-03-02T03:38:59.788Z,25.17
2023-03-02T03:41:27.827Z,31.87
2023-03-02T03:43:55.720Z,32.00
2023-03-02T03:46:23.206Z,29.70
2023-03-02T03:48:50.672Z,34.90
2023-03-02T03:51:18.036Z,28.67
2023-03-02T03:53:45.155Z,28.50
2023-03-02T03:56:12.972Z,29.70
2023-03-02T03:58:40.169Z,32.33
2023-03-02T04:01:07.656Z,31.00
2023-03-02T04:03:34.729Z,32.10
2023-03-02T04:06:01.634Z,30.77
2023-03-02T04:08:28.611Z,31.30
2023-03-02T04:10:55.675Z,31.17
2023-03-02T04:13:22.673Z,32.30
2023-03-02T04:15:49.846Z,32.57
2023-03-02T04:18:16.900Z,31.67
2023-03-02T04:20:43.897Z,34.00
2023-03-02T04:23:11.073Z,30.00
2023-03-02T04:25:38.096Z,33.87
2023-03-02T04:28:05.456Z,35.30
2023-03-02T04:30:33.529Z,31.13
2023-03-02T04:33:00.744Z,31.10
2023-03-02T04:35:27.973Z,32.80
2023-03-02T04:37:55.237Z,32.60
2023-03-02T04:40:22.519Z,30.27
2023-03-02T04:42:49.455Z,31.00
2023-03-02T04:45:18.456Z,32.50
2023-03-02T04:47:45.600Z,32.77
2023-03-02T04:50:15.164Z,33.77
2023-03-02T04:52:43.198Z,31.03
2023-03-02T04:55:20.304Z,33.30
2023-03-02T04:57:47.768Z,33.07
2023-03-02T05:00:17.168Z,33.40
2023-03-02T05:02:44.827Z,34.93
2023-03-02T05:05:23.553Z,35.97
2023-03-02T05:07:52.022Z,31.20
2023-03-02T05:10:23.914Z,32.53
2023-03-02T05:13:02.987Z,31.63
2023-03-02T05:15:34.352Z,34.77
2023-03-02T05:18:01.816Z,35.50
2023-03-02T05:20:30.589Z,34.30
2023-03-02T05:23:02.441Z,34.20
2023-03-02T05:25:33.028Z,32.77
2023-03-02T05:28:00.955Z,35.30
2023-03-02T05:30:29.308Z,33.50
2023-03-02T05:32:56.351Z,35.27
2023-03-02T05:35:23.623Z,33.87
2023-03-02T05:37:51.279Z,34.17
2023-03-02T05:40:21.223Z,34.97
2023-03-02T05:42:48.906Z,34.20
2023-03-02T05:45:32.964Z,34.47
2023-03-02T05:48:00.108Z,34.80
2023-03-02T05:50:27.556Z,35.40
2023-03-02T05:52:54.571Z,34.30
2023-03-02T05:55:21.810Z,34.40
2023-03-02T05:57:51.871Z,37.13
2023-03-02T06:00:20.354Z,35.00
2023-03-02T06:02:48.490Z,34.93
2023-03-02T06:05:19.447Z,32.43
2023-03-02T06:07:46.608Z,33.40
2023-03-02T06:10:15.132Z,35.60
2023-03-02T06:12:42.345Z,35.07
2023-03-02T06:15:10.469Z,39.63
2023-03-02T06:17:38.185Z,34.90
2023-03-02T06:20:11.560Z,36.13
2023-03-02T06:22:47.938Z,35.77
2023-03-02T06:25:19.393Z,36.13
2023-03-02T06:27:47.064Z,39.00
2023-03-02T06:30:19.066Z,38.77
2023-03-02T06:32:46.343Z,35.10
2023-03-02T06:35:14.240Z,38.37
2023-03-02T06:37:43.728Z,32.33
2023-03-02T06:40:14.312Z,35.57
2023-03-02T06:42:43.077Z,35.30
2023-03-02T06:45:11.751Z,36.57
2023-03-02T06:47:40.058Z,35.50
2023-03-02T06:50:08.195Z,35.23
2023-03-02T06:52:35.747Z,37.33
2023-03-02T06:55:04.291Z,35.10
2023-03-02T06:57:34.359Z,34.03
2023-03-02T07:00:25.969Z,35.63
2023-03-02T07:02:55.836Z,35.57
2023-03-02T07:05:25.066Z,35.30
2023-03-02T07:07:52.757Z,37.13
2023-03-02T07:10:20.283Z,34.03
2023-03-02T07:12:47.221Z,37.67
2023-03-02T07:15:14.682Z,35.90
2023-03-02T07:17:44.466Z,34.50
2023-03-02T07:20:18.243Z,34.20
2023-03-02T07:22:46.224Z,33.57
2023-03-02T07:25:14.166Z,32.10
2023-03-02T07:27:41.957Z,34.63
2023-03-02T07:30:10.573Z,31.37
2023-03-02T07:32:37.815Z,33.90
2023-03-02T07:35:05.430Z,35.67
2023-03-02T07:37:32.508Z,31.90
2023-03-02T07:40:00.802Z,29.10
2023-03-02T07:42:28.241Z,30.50
2023-03-02T07:44:55.927Z,35.53
2023-03-02T07:47:23.075Z,35.53
2023-03-02T07:49:50.096Z,36.83
2023-03-02T07:52:17.582Z,31.50
2023-03-02T07:54:44.522Z,36.97
2023-03-02T07:57:14.020Z,34.90
2023-03-02T07:59:41.010Z,32.03
2023-03-02T08:02:13.248Z,32.07
2023-03-02T08:04:40.677Z,34.50
2023-03-02T08:07:07.797Z,36.73
2023-03-02T08:09:35.234Z,28.37
2023-03-02T08:12:02.204Z,30.47
2023-03-02T08:14:29.144Z,33.10
2023-03-02T08:16:56.169Z,28.87
2023-03-02T08:19:23.117Z,31.57
2023-03-02T08:21:50.138Z,31.97
2023-03-02T08:24:17.154Z,31.70
2023-03-02T08:26:44.091Z,29.77
2023-03-02T08:29:11.105Z,28.97
2023-03-02T08:31:38.190Z,30.43
2023-03-02T08:34:06.440Z,30.40
2023-03-02T08:36:33.662Z,29.13
2023-03-02T08:39:00.996Z,28.03
2023-03-02T08:41:27.982Z,32.80
2023-03-02T08:43:57.050Z,28.27
2023-03-02T08:46:24.967Z,28.90
2023-03-02T08:48:52.305Z,29.27
2023-03-02T08:51:26.386Z,30.10
2023-03-02T08:53:55.577Z,28.93
2023-03-02T08:56:24.135Z,28.40
2023-03-02T08:58:53.642Z,28.70
2023-03-02T09:01:25.881Z,28.27
2023-03-02T09:03:53.276Z,28.50
2023-03-02T09:06:21.151Z,30.13
2023-03-02T09:08:49.118Z,29.07
2023-03-02T09:11:16.820Z,28.20
2023-03-02T09:13:44.287Z,27.07
2023-03-02T09:16:12.368Z,26.07
2023-03-02T09:21:25.689Z,25.73
2023-03-02T09:23:55.914Z,24.37
2023-03-02T09:26:22.889Z,26.37
2023-03-02T09:28:49.961Z,25.60
2023-03-02T09:31:17.054Z,27.87
2023-03-02T09:33:44.205Z,29.67
2023-03-02T09:36:16.347Z,26.47
2023-03-02T09:38:43.322Z,28.50
2023-03-02T09:41:19.642Z,27.17
2023-03-02T09:44:19.047Z,26.70
2023-03-02T09:46:50.257Z,26.10
2023-03-02T09:49:50.909Z,27.87
2023-03-02T09:52:45.230Z,24.77
2023-03-02T09:55:20.593Z,23.80
2023-03-02T09:57:47.955Z,26.30
2023-03-02T10:00:38.441Z,25.63
2023-03-02T10:03:22.641Z,24.10
2023-03-02T10:05:54.259Z,23.23
2023-03-02T10:08:26.234Z,23.97
2023-03-02T10:11:19.121Z,25.10
2023-03-02T10:14:03.075Z,21.80
2023-03-02T10:16:54.648Z,21.40
2023-03-02T10:19:25.298Z,21.50
2023-03-02T10:22:22.675Z,23.60
2023-03-02T10:25:04.467Z,23.00
2023-03-02T10:27:40.270Z,22.47
2023-03-02T10:30:35.562Z,19.37
2023-03-02T10:33:18.128Z,20.90
2023-03-02T10:35:53.375Z,18.73
2023-03-02T10:38:24.190Z,21.37
2023-03-02T10:41:09.011Z,18.13
2023-03-02T10:43:42.226Z,17.00
2023-03-02T10:46:12.338Z,19.93
2023-03-02T10:48:58.431Z,20.03
2023-03-02T10:51:31.713Z,18.70
2023-03-02T10:54:13.885Z,18.70
2023-03-02T10:56:52.229Z,19.33
2023-03-02T10:59:25.464Z,17.97
2023-03-02T11:02:25.576Z,19.17
2023-03-02T11:05:16.895Z,19.10
2023-03-02T11:07:55.454Z,19.90
2023-03-02T11:10:32.672Z,17.67
2023-03-02T11:13:02.099Z,17.03
2023-03-02T11:15:41.085Z,16.90
2023-03-02T11:18:40.946Z,18.03
2023-03-02T11:21:41.021Z,18.40
2023-03-02T11:24:39.751Z,17.57
2023-03-02T11:27:15.568Z,14.60
2023-03-02T11:30:09.263Z,16.60
2023-03-02T11:32:58.569Z,15.10
2023-03-02T11:35:34.888Z,15.00
2023-03-02T11:38:20.589Z,15.47
2023-03-02T11:41:12.434Z,14.83
2023-03-02T11:43:39.453Z,13.50
2023-03-02T11:46:22.226Z,13.23
2023-03-02T11:48:55.289Z,15.73
2023-03-02T11:51:57.845Z,14.00
2023-03-02T11:54:46.031Z,12.50
2023-03-02T11:57:51.244Z,12.90
2023-03-02T12:00:42.976Z,13.63
2023-03-02T12:03:16.128Z,11.90
2023-03-02T12:05:52.384Z,12.80
2023-03-02T12:08:19.337Z,13.20
2023-03-02T12:11:05.822Z,12.50
2023-03-02T12:13:37.224Z,16.07
2023-03-02T12:16:20.876Z,12.37
2023-03-02T12:18:52.311Z,14.60
2023-03-02T12:21:23.276Z,15.43
2023-03-02T12:23:50.193Z,13.90
2023-03-02T12:26:20.004Z,14.53
2023-03-02T12:29:08.178Z,15.00
2023-03-02T12:31:54.395Z,13.60
2023-03-02T12:34:24.495Z,13.47
2023-03-02T12:36:57.485Z,14.30
2023-03-02T12:40:06.337Z,13.73
2023-03-02T12:42:59.622Z,16.00
2023-03-02T12:45:36.290Z,14.60
2023-03-02T12:48:30.825Z,15.60
2023-03-02T12:51:05.250Z,16.20
2023-03-02T12:53:32.456Z,14.83
2023-03-02T12:55:59.478Z,14.10
2023-03-02T12:58:29.307Z,14.10
2023-03-02T13:01:03.089Z,15.97
2023-03-02T13:03:32.139Z,17.63
2023-03-02T13:06:15.412Z,17.77
2023-03-02T13:08:50.375Z,16.60
2023-03-02T13:11:28.517Z,15.77
2023-03-02T13:13:56.121Z,17.70
2023-03-02T13:16:27.710Z,17.60
2023-03-02T13:19:16.834Z,17.47
2023-03-02T13:21:44.387Z,18.70
2023-03-02T13:24:36.057Z,18.20
2023-03-02T13:27:18.222Z,18.43
2023-03-02T13:29:46.125Z,19.20
2023-03-02T13:32:36.447Z,17.97
2023-03-02T13:35:05.157Z,18.40
2023-03-02T13:37:44.272Z,18.80
2023-03-02T13:40:23.480Z,19.00
2023-03-02T13:42:51.488Z,16.17
2023-03-02T13:45:30.212Z,18.20
2023-03-02T13:48:01.287Z,19.90
2023-03-02T13:50:32.566Z,18.50
2023-03-02T13:53:05.628Z,18.30
2023-03-02T13:55:33.882Z,19.40
2023-03-02T13:58:02.069Z,18.23
2023-03-02T14:00:34.750Z,18.63
2023-03-02T14:03:02.292Z,16.93
2023-03-02T14:05:33.655Z,18.40
2023-03-02T14:08:01.160Z,16.53
2023-03-02T14:10:28.938Z,18.10
2023-03-02T14:13:08.832Z,17.50
2023-03-02T14:15:43.757Z,17.83
2023-03-02T14:18:36.978Z,17.00
2023-03-02T14:21:04.774Z,15.60
2023-03-02T14:23:31.982Z,17.10
2023-03-02T14:25:59.151Z,15.47
2023-03-02T14:28:33.465Z,17.53
2023-03-02T14:31:00.476Z,16.27
2023-03-02T14:33:27.614Z,15.60
2023-03-02T14:35:57.415Z,15.33
2023-03-02T14:38:28.100Z,15.70
2023-03-02T14:40:55.238Z,14.60
2023-03-02T14:43:24.079Z,16.93
2023-03-02T14:45:55.178Z,17.57
2023-03-02T14:48:22.444Z,15.97
2023-03-02T14:50:51.748Z,16.23
2023-03-02T14:53:30.013Z,16.63
2023-03-02T14:55:57.238Z,18.73
2023-03-02T14:58:35.081Z,16.50
2023-03-02T15:01:02.095Z,18.70
2023-03-02T15:03:29.591Z,19.47
2023-03-02T15:06:01.132Z,17.10
2023-03-02T15:08:29.651Z,18.57
2023-03-02T15:10:56.743Z,17.07
2023-03-02T15:13:23.741Z,17.97
2023-03-02T15:15:53.118Z,16.60
2023-03-02T15:18:20.167Z,17.80
2023-03-02T15:20:47.253Z,17.37
2023-03-02T15:23:14.183Z,16.37
2023-03-02T15:25:41.287Z,17.67
2023-03-02T15:28:08.507Z,18.07
2023-03-02T15:30:35.559Z,16.33
2023-03-02T15:33:02.500Z,18.00
2023-03-02T15:35:29.759Z,17.13
2023-03-02T15:37:58.465Z,19.10
2023-03-02T15:40:25.845Z,19.00
2023-03-02T15:42:53.400Z,18.37
2023-03-02T15:45:20.568Z,19.00
2023-03-02T15:47:47.500Z,19.50
2023-03-02T15:50:14.829Z,19.30
2023-03-02T15:52:42.528Z,19.10
2023-03-02T15:55:09.949Z,17.10
2023-03-02T15:57:39.449Z,19.40
2023-03-02T16:00:08.082Z,19.70
2023-03-02T16:02:35.816Z,19.63
2023-03-02T16:05:03.116Z,20.60
2023-03-02T16:07:30.822Z,19.60
2023-03-02T16:09:57.813Z,20.33
2023-03-02T16:12:26.747Z,18.07
2023-03-02T16:14:53.749Z,18.80
2023-03-02T16:17:20.879Z,21.97
2023-03-02T16:19:47.866Z,20.60
2023-03-02T16:22:15.442Z,20.90
2023-03-02T16:24:42.605Z,21.20
2023-03-02T16:27:09.640Z,21.67
2023-03-02T16:29:36.743Z,21.03
2023-03-02T16:32:03.985Z,20.67
2023-03-02T16:34:31.073Z,20.97
2023-03-02T16:36:58.143Z,18.03
2023-03-02T16:39:25.584Z,18.83
2023-03-02T16:41:52.844Z,21.00
2023-03-02T16:44:20.353Z,20.57
2023-03-02T16:46:47.385Z,19.70
2023-03-02T16:49:16.185Z,19.80
2023-03-02T16:51:43.532Z,19.77
2023-03-02T16:54:10.991Z,19.37
2023-03-02T16:56:37.988Z,20.77
2023-03-02T16:59:05.084Z,17.77
2023-03-02T17:01:32.076Z,18.83
2023-03-02T17:03:59.295Z,18.63
2023-03-02T17:06:26.740Z,18.50
2023-03-02T17:08:53.954Z,18.20
2023-03-02T17:11:21.683Z,20.20
2023-03-02T17:13:49.244Z,17.90
2023-03-02T17:16:17.099Z,18.73
2023-03-02T17:18:47.410Z,17.37
2023-03-02T17:21:17.398Z,16.60
2023-03-02T17:23:48.234Z,16.83
2023-03-02T17:26:17.188Z,16.93
2023-03-02T17:28:44.206Z,18.67
2023-03-02T17:31:11.565Z,17.30
2023-03-02T17:33:39.839Z,17.47
2023-03-02T17:36:12.335Z,15.47
2023-03-02T17:38:40.863Z,18.87
2023-03-02T17:41:09.788Z,16.83
2023-03-02T17:43:41.481Z,17.30
2023-03-02T17:46:28.511Z,15.70
2023-03-02T17:48:58.204Z,16.87
2023-03-02T17:51:27.686Z,15.33
2023-03-02T17:53:56.863Z,20.77
2023-03-02T17:56:27.335Z,16.17
2023-03-02T17:59:02.153Z,17.03
2023-03-02T18:01:30.587Z,17.97
2023-03-02T18:03:58.492Z,15.47
2023-03-02T18:06:26.115Z,16.00
2023-03-02T18:08:53.199Z,16.07
2023-03-02T18:11:23.964Z,15.20
2023-03-02T18:13:56.827Z,17.73
2023-03-02T18:16:28.065Z,16.53
2023-03-02T18:18:57.582Z,16.03
2023-03-02T18:21:24.658Z,14.57
2023-03-02T18:23:51.804Z,16.23
2023-03-02T18:26:23.864Z,16.50
2023-03-02T18:28:50.863Z,16.20
2023-03-02T18:31:19.381Z,16.30
2023-03-02T18:33:46.909Z,14.37
2023-03-02T18:36:14.594Z,16.00
2023-03-02T18:38:42.006Z,16.17
2023-03-02T18:41:10.328Z,17.33
2023-03-02T18:43:41.936Z,14.03
2023-03-02T18:46:23.936Z,17.17
2023-03-02T18:48:52.113Z,15.13
2023-03-02T18:51:21.364Z,15.90
2023-03-02T18:53:50.731Z,17.27
2023-03-02T18:56:18.844Z,16.00
2023-03-02T18:58:46.825Z,16.90
2023-03-02T19:01:14.372Z,16.60
2023-03-02T19:03:42.066Z,17.40
2023-03-02T19:06:09.536Z,17.83
2023-03-02T19:08:51.975Z,17.93
2023-03-02T19:11:45.298Z,17.83
2023-03-02T19:14:17.849Z,16.70
2023-03-02T19:17:03.300Z,16.77
2023-03-02T19:19:55.384Z,15.50
2023-03-02T19:22:43.565Z,16.20
2023-03-02T19:28:27.902Z,15.60
2023-03-02T19:31:28.376Z,16.47
2023-03-02T19:34:16.668Z,16.53
2023-03-02T19:37:18.077Z,16.23
2023-03-02T19:40:03.832Z,16.80
2023-03-02T19:42:53.260Z,17.40
2023-03-02T19:45:46.191Z,17.10
2023-03-02T19:48:46.683Z,16.57
2023-03-02T19:51:39.718Z,16.73
2023-03-02T19:54:24.903Z,17.20
2023-03-02T19:57:04.193Z,17.00
2023-03-02T19:59:48.163Z,16.90
2023-03-02T20:02:21.653Z,15.90
2023-03-02T20:05:04.219Z,17.17
2023-03-02T20:07:41.762Z,17.20
2023-03-02T20:10:48.257Z,17.77
2023-03-02T20:13:30.032Z,14.73
2023-03-02T20:16:08.626Z,17.00
2023-03-02T20:18:53.343Z,17.73
2023-03-02T20:21:37.053Z,16.13
2023-03-02T20:24:29.324Z,17.50
2023-03-02T20:27:09.055Z,16.67
2023-03-02T20:29:49.641Z,17.63
2023-03-02T20:32:34.032Z,16.57
2023-03-02T20:35:16.082Z,19.27
2023-03-02T20:37:55.488Z,18.40
2023-03-02T20:40:34.840Z,18.67
2023-03-02T20:43:15.157Z,17.70
2023-03-02T20:45:55.580Z,18.80
2023-03-02T20:48:38.786Z,19.20
2023-03-02T20:51:21.414Z,18.63
2023-03-02T20:54:04.250Z,19.80
2023-03-02T20:56:42.484Z,19.57
2023-03-02T20:59:10.522Z,20.10
2023-03-02T21:01:37.592Z,18.30
2023-03-02T21:04:04.894Z,20.43
2023-03-02T21:06:33.625Z,20.07
2023-03-02T21:09:07.875Z,19.70
2023-03-02T21:11:36.015Z,19.70
2023-03-02T21:14:04.159Z,19.53
2023-03-02T21:16:37.166Z,19.70
2023-03-02T21:19:13.159Z,20.53
2023-03-02T21:21:42.219Z,19.90
2023-03-02T21:24:19.233Z,19.67
2023-03-02T21:26:48.774Z,20.37
2023-03-02T21:29:18.142Z,22.67
2023-03-02T21:31:46.454Z,20.33
2023-03-02T21:34:15.130Z,20.57
2023-03-02T21:36:43.506Z,19.53
2023-03-02T21:39:12.164Z,22.70
2023-03-02T21:41:40.400Z,22.10
2023-03-02T21:44:07.822Z,20.73
2023-03-02T21:46:36.894Z,22.40
2023-03-02T21:49:04.592Z,22.50
2023-03-02T21:51:31.697Z,22.70
2023-03-02T21:53:58.697Z,21.10
2023-03-02T21:56:27.490Z,20.57
2023-03-02T21:58:57.581Z,19.40
2023-03-02T22:01:27.098Z,20.90
2023-03-02T22:03:54.452Z,22.47
2023-03-02T22:06:28.427Z,24.30
2023-03-02T22:08:57.273Z,22.03
2023-03-02T22:11:32.070Z,22.60
2023-03-02T22:14:03.832Z,23.50
2023-03-02T22:16:39.193Z,25.60
2023-03-02T22:19:27.455Z,26.97
2023-03-02T22:21:57.299Z,22.73
2023-03-02T22:24:34.777Z,24.70
2023-03-02T22:27:29.415Z,23.30
2023-03-02T22:29:59.700Z,22.20
2023-03-02T22:32:31.533Z,20.60
2023-03-02T22:35:07.864Z,21.47
2023-03-02T22:37:35.935Z,21.50
2023-03-02T22:40:18.506Z,19.53
2023-03-02T22:42:45.505Z,20.43
2023-03-02T22:45:21.940Z,21.17
2023-03-02T22:47:52.614Z,20.17
2023-03-02T22:50:29.931Z,22.77
2023-03-02T22:53:17.142Z,20.53
2023-03-02T22:55:44.218Z,20.87
2023-03-02T22:58:20.254Z,20.87
2023-03-02T23:00:48.595Z,19.97
2023-03-02T23:03:19.731Z,22.50
2023-03-02T23:05:51.285Z,21.63
2023-03-02T23:08:28.423Z,19.40
2023-03-02T23:10:58.752Z,20.40
2023-03-02T23:13:39.173Z,21.37
2023-03-02T23:16:26.366Z,21.10
2023-03-02T23:18:57.154Z,21.07
2023-03-02T23:21:29.232Z,21.67
2023-03-02T23:23:56.275Z,20.60
2023-03-02T23:26:23.413Z,20.67
2023-03-02T23:28:51.250Z,20.47
2023-03-02T23:31:18.563Z,18.60
2023-03-02T23:33:46.046Z,21.67
2023-03-02T23:36:14.547Z,20.20
2023-03-02T23:38:42.045Z,19.80
2023-03-02T23:41:10.074Z,20.47
2023-03-02T23:43:37.317Z,21.97
2023-03-02T23:46:04.785Z,20.13
2023-03-02T23:48:33.017Z,20.47
2023-03-02T23:51:01.105Z,19.67
2023-03-02T23:53:28.179Z,20.10
2023-03-02T23:55:55.980Z,21.57
2023-03-02T23:58:23.539Z,19.40
